sensor_id;sensor_type;location;lat;lon;timestamp;pressure;altitude;pressure_sealevel;temperature;humidity
79589;BME280;69067;51.930;4.492;2023-05-23T00:00:04;102020.97;;;21.52;53.32
79589;BME280;69067;51.930;4.492;2023-05-23T00:02:30;102013.19;;;21.49;52.91
79589;BME280;69067;51.930;4.492;2023-05-23T00:04:56;102018.41;;;21.51;53.47
79589;BME280;69067;51.930;4.492;2023-05-23T00:07:23;102018.41;;;21.51;52.85
79589;BME280;69067;51.930;4.492;2023-05-23T00:09:49;102014.88;;;21.50;52.76
79589;BME280;69067;51.930;4.492;2023-05-23T00:12:14;102014.88;;;21.50;52.61
79589;BME280;69067;51.930;4.492;2023-05-23T00:14:40;102019.25;;;21.51;53.00
79589;BME280;69067;51.930;4.492;2023-05-23T00:17:07;102019.25;;;21.51;53.31
79589;BME280;69067;51.930;4.492;2023-05-23T00:19:34;102007.75;;;21.49;53.08
79589;BME280;69067;51.930;4.492;2023-05-23T00:22:00;102023.66;;;21.52;53.27
79589;BME280;69067;51.930;4.492;2023-05-23T00:24:27;102017.41;;;21.52;53.31
79589;BME280;69067;51.930;4.492;2023-05-23T00:26:53;102016.56;;;21.51;52.88
79589;BME280;69067;51.930;4.492;2023-05-23T00:29:19;102025.72;;;21.50;53.07
79589;BME280;69067;51.930;4.492;2023-05-23T00:31:45;102026.38;;;21.52;53.50
79589;BME280;69067;51.930;4.492;2023-05-23T00:34:15;102025.53;;;21.52;52.99
79589;BME280;69067;51.930;4.492;2023-05-23T00:36:44;102019.25;;;21.51;52.95
79589;BME280;69067;51.930;4.492;2023-05-23T00:39:11;102025.53;;;21.52;53.11
79589;BME280;69067;51.930;4.492;2023-05-23T00:41:48;102036.38;;;21.52;52.94
79589;BME280;69067;51.930;4.492;2023-05-23T00:44:15;102032.66;;;21.53;52.51
79589;BME280;69067;51.930;4.492;2023-05-23T00:46:43;102030.94;;;21.52;52.93
79589;BME280;69067;51.930;4.492;2023-05-23T00:49:11;102026.72;;;21.49;53.43
79589;BME280;69067;51.930;4.492;2023-05-23T00:51:37;102030.09;;;21.51;53.15
79589;BME280;69067;51.930;4.492;2023-05-23T00:54:06;102032.81;;;21.51;53.32
79589;BME280;69067;51.930;4.492;2023-05-23T00:56:32;102040.09;;;21.51;52.61
79589;BME280;69067;51.930;4.492;2023-05-23T00:58:59;102039.94;;;21.52;53.54
79589;BME280;69067;51.930;4.492;2023-05-23T01:01:25;102034.66;;;21.51;53.18
79589;BME280;69067;51.930;4.492;2023-05-23T01:03:51;102033.16;;;21.48;53.26
79589;BME280;69067;51.930;4.492;2023-05-23T01:06:17;102025.53;;;21.52;53.51
79589;BME280;69067;51.930;4.492;2023-05-23T01:08:44;102031.81;;;21.52;52.65
79589;BME280;69067;51.930;4.492;2023-05-23T01:11:44;102036.38;;;21.52;52.83
79589;BME280;69067;51.930;4.492;2023-05-23T01:14:21;102033.50;;;21.53;52.99
79589;BME280;69067;51.930;4.492;2023-05-23T01:16:57;102027.38;;;21.51;52.94
79589;BME280;69067;51.930;4.492;2023-05-23T01:22:57;102030.09;;;21.51;52.94
79589;BME280;69067;51.930;4.492;2023-05-23T01:28:32;102031.81;;;21.52;53.33
79589;BME280;69067;51.930;4.492;2023-05-23T01:31:03;102038.22;;;21.51;53.09
79589;BME280;69067;51.930;4.492;2023-05-23T01:33:31;102035.53;;;21.51;53.17
79589;BME280;69067;51.930;4.492;2023-05-23T01:36:00;102038.22;;;21.51;53.03
79589;BME280;69067;51.930;4.492;2023-05-23T01:38:30;102031.31;;;21.49;53.36
79589;BME280;69067;51.930;4.492;2023-05-23T01:40:56;102039.28;;;21.50;53.63
79589;BME280;69067;51.930;4.492;2023-05-23T01:43:23;102043.66;;;21.51;53.76
79589;BME280;69067;51.930;4.492;2023-05-23T01:45:52;102040.44;;;21.48;53.55
79589;BME280;69067;51.930;4.492;2023-05-23T01:48:20;102043.84;;;21.50;53.10
79589;BME280;69067;51.930;4.492;2023-05-23T01:50:46;102053.84;;;21.49;53.59
79589;BME280;69067;51.930;4.492;2023-05-23T01:53:15;102048.72;;;21.46;53.01
79589;BME280;69067;51.930;4.492;2023-05-23T01:55:43;102051.13;;;21.49;53.18
79589;BME280;69067;51.930;4.492;2023-05-23T01:58:09;102046.72;;;21.48;53.60
79589;BME280;69067;51.930;4.492;2023-05-23T02:00:35;102045.00;;;21.47;53.38
79589;BME280;69067;51.930;4.492;2023-05-23T02:03:01;102052.13;;;21.48;53.60
79589;BME280;69067;51.930;4.492;2023-05-23T02:05:27;102051.28;;;21.48;53.51
79589;BME280;69067;51.930;4.492;2023-05-23T02:07:53;102045.00;;;21.47;53.63
79589;BME280;69067;51.930;4.492;2023-05-23T02:10:18;102050.44;;;21.47;53.31
79589;BME280;69067;51.930;4.492;2023-05-23T02:12:45;102050.75;;;21.44;53.30
79589;BME280;69067;51.930;4.492;2023-05-23T02:15:10;102052.44;;;21.45;53.87
79589;BME280;69067;51.930;4.492;2023-05-23T02:17:36;102056.69;;;21.48;53.95
79589;BME280;69067;51.930;4.492;2023-05-23T02:20:04;102052.44;;;21.45;53.55
79589;BME280;69067;51.930;4.492;2023-05-23T02:22:30;102058.72;;;21.46;54.24
79589;BME280;69067;51.930;4.492;2023-05-23T02:24:56;102054.16;;;21.46;54.04
79589;BME280;69067;51.930;4.492;2023-05-23T02:27:22;102047.38;;;21.42;53.21
79589;BME280;69067;51.930;4.492;2023-05-23T02:29:47;102055.16;;;21.45;53.83
79589;BME280;69067;51.930;4.492;2023-05-23T02:32:13;102069.72;;;21.44;53.38
79589;BME280;69067;51.930;4.492;2023-05-23T02:34:39;102064.47;;;21.43;53.55
79589;BME280;69067;51.930;4.492;2023-05-23T02:37:05;102070.56;;;21.45;53.65
79589;BME280;69067;51.930;4.492;2023-05-23T02:42:00;102074.13;;;21.45;53.69
79589;BME280;69067;51.930;4.492;2023-05-23T02:44:26;102079.88;;;21.42;53.29
79589;BME280;69067;51.930;4.492;2023-05-23T02:46:52;102084.31;;;21.43;53.49
79589;BME280;69067;51.930;4.492;2023-05-23T02:49:17;102083.59;;;21.41;53.41
79589;BME280;69067;51.930;4.492;2023-05-23T02:51:43;102087.00;;;21.43;53.85
79589;BME280;69067;51.930;4.492;2023-05-23T02:54:09;102086.16;;;21.43;53.31
79589;BME280;69067;51.930;4.492;2023-05-23T02:56:34;102084.63;;;21.40;53.57
79589;BME280;69067;51.930;4.492;2023-05-23T02:59:00;102094.28;;;21.43;53.17
79589;BME280;69067;51.930;4.492;2023-05-23T03:01:26;102097.00;;;21.43;53.33
79589;BME280;69067;51.930;4.492;2023-05-23T03:03:52;102098.00;;;21.42;53.45
79589;BME280;69067;51.930;4.492;2023-05-23T03:06:17;102098.16;;;21.40;53.62
79589;BME280;69067;51.930;4.492;2023-05-23T03:08:43;102105.28;;;21.41;54.07
79589;BME280;69067;51.930;4.492;2023-05-23T03:11:09;102109.00;;;21.40;53.32
79589;BME280;69067;51.930;4.492;2023-05-23T03:13:34;102100.19;;;21.38;53.61
79589;BME280;69067;51.930;4.492;2023-05-23T03:16:00;102103.91;;;21.37;53.21
79589;BME280;69067;51.930;4.492;2023-05-23T03:18:26;102104.59;;;21.39;53.86
79589;BME280;69067;51.930;4.492;2023-05-23T03:20:52;102095.63;;;21.39;53.09
79589;BME280;69067;51.930;4.492;2023-05-23T03:23:18;102090.19;;;21.39;53.65
79589;BME280;69067;51.930;4.492;2023-05-23T03:25:43;102095.63;;;21.39;53.37
79589;BME280;69067;51.930;4.492;2023-05-23T03:28:09;102102.88;;;21.38;53.42
79589;BME280;69067;51.930;4.492;2023-05-23T03:30:37;102096.63;;;21.38;53.62
79589;BME280;69067;51.930;4.492;2023-05-23T03:33:02;102107.31;;;21.39;53.09
79589;BME280;69067;51.930;4.492;2023-05-23T03:35:29;102115.59;;;21.38;53.74
79589;BME280;69067;51.930;4.492;2023-05-23T03:37:55;102110.16;;;21.38;53.85
79589;BME280;69067;51.930;4.492;2023-05-23T03:40:21;102097.13;;;21.33;52.76
79589;BME280;69067;51.930;4.492;2023-05-23T03:43:00;102107.47;;;21.38;53.36
79589;BME280;69067;51.930;4.492;2023-05-23T03:45:31;102102.22;;;21.36;53.51
79589;BME280;69067;51.930;4.492;2023-05-23T03:47:58;102117.63;;;21.36;53.14
79589;BME280;69067;51.930;4.492;2023-05-23T03:50:24;102119.31;;;21.37;53.93
79589;BME280;69067;51.930;4.492;2023-05-23T03:52:51;102120.16;;;21.37;52.96
79589;BME280;69067;51.930;4.492;2023-05-23T03:55:17;102121.50;;;21.33;53.21
79589;BME280;69067;51.930;4.492;2023-05-23T03:57:52;102127.63;;;21.35;53.65
79589;BME280;69067;51.930;4.492;2023-05-23T04:00:18;102133.88;;;21.36;54.07
79589;BME280;69067;51.930;4.492;2023-05-23T04:02:45;102133.03;;;21.35;52.87
79589;BME280;69067;51.930;4.492;2023-05-23T04:05:12;102126.75;;;21.35;52.90
79589;BME280;69067;51.930;4.492;2023-05-23T04:07:38;102133.03;;;21.35;53.31
79589;BME280;69067;51.930;4.492;2023-05-23T04:10:04;102147.59;;;21.34;53.19
79589;BME280;69067;51.930;4.492;2023-05-23T04:12:31;102140.47;;;21.33;52.80
79589;BME280;69067;51.930;4.492;2023-05-23T04:14:57;102153.16;;;21.33;53.01
79589;BME280;69067;51.930;4.492;2023-05-23T04:17:23;102145.88;;;21.33;53.90
79589;BME280;69067;51.930;4.492;2023-05-23T04:19:51;102149.59;;;21.32;53.99
79589;BME280;69067;51.930;4.492;2023-05-23T04:22:16;102150.59;;;21.31;53.12
79589;BME280;69067;51.930;4.492;2023-05-23T04:24:42;102158.75;;;21.31;53.43
79589;BME280;69067;51.930;4.492;2023-05-23T04:27:08;102153.31;;;21.31;53.29
79589;BME280;69067;51.930;4.492;2023-05-23T04:29:34;102160.78;;;21.29;53.42
79589;BME280;69067;51.930;4.492;2023-05-23T04:32:01;102157.38;;;21.27;53.31
79589;BME280;69067;51.930;4.492;2023-05-23T04:34:27;102155.66;;;21.26;53.34
79589;BME280;69067;51.930;4.492;2023-05-23T04:36:53;102158.22;;;21.28;53.25
79589;BME280;69067;51.930;4.492;2023-05-23T04:39:19;102157.53;;;21.26;53.39
79589;BME280;69067;51.930;4.492;2023-05-23T04:41:45;102164.66;;;21.27;53.49
79589;BME280;69067;51.930;4.492;2023-05-23T04:44:11;102170.06;;;21.27;52.96
79589;BME280;69067;51.930;4.492;2023-05-23T04:46:38;102175.63;;;21.25;53.24
79589;BME280;69067;51.930;4.492;2023-05-23T04:49:09;102180.34;;;21.23;53.77
79589;BME280;69067;51.930;4.492;2023-05-23T04:51:35;102179.03;;;21.27;53.37
79589;BME280;69067;51.930;4.492;2023-05-23T04:54:01;102177.34;;;21.26;53.37
79589;BME280;69067;51.930;4.492;2023-05-23T04:56:27;102186.47;;;21.25;53.55
79589;BME280;69067;51.930;4.492;2023-05-23T04:58:54;102189.19;;;21.25;52.58
79589;BME280;69067;51.930;4.492;2023-05-23T05:01:20;102181.22;;;21.23;53.20
79589;BME280;69067;51.930;4.492;2023-05-23T05:03:49;102192.91;;;21.24;53.47
79589;BME280;69067;51.930;4.492;2023-05-23T05:06:15;102186.13;;;21.20;53.51
79589;BME280;69067;51.930;4.492;2023-05-23T05:08:42;102189.34;;;21.23;52.85
79589;BME280;69067;51.930;4.492;2023-05-23T05:11:09;102199.31;;;21.23;53.41
79589;BME280;69067;51.930;4.492;2023-05-23T05:13:35;102195.09;;;21.20;53.18
79589;BME280;69067;51.930;4.492;2023-05-23T05:16:01;102199.66;;;21.20;53.11
79589;BME280;69067;51.930;4.492;2023-05-23T05:18:28;102204.94;;;21.21;53.03
79589;BME280;69067;51.930;4.492;2023-05-23T05:20:54;102206.63;;;21.23;53.22
79589;BME280;69067;51.930;4.492;2023-05-23T05:23:23;102208.47;;;21.22;53.06
79589;BME280;69067;51.930;4.492;2023-05-23T05:25:49;102209.50;;;21.21;52.46
79589;BME280;69067;51.930;4.492;2023-05-23T05:28:15;102215.91;;;21.20;53.06
79589;BME280;69067;51.930;4.492;2023-05-23T05:30:41;102213.19;;;21.20;53.11
79589;BME280;69067;51.930;4.492;2023-05-23T05:33:07;102214.34;;;21.17;52.56
79589;BME280;69067;51.930;4.492;2023-05-23T05:35:33;102226.91;;;21.18;53.28
79589;BME280;69067;51.930;4.492;2023-05-23T05:38:00;102223.34;;;21.18;52.66
79589;BME280;69067;51.930;4.492;2023-05-23T05:40:27;102223.34;;;21.18;52.89
79589;BME280;69067;51.930;4.492;2023-05-23T05:42:52;102221.63;;;21.17;52.83
79589;BME280;69067;51.930;4.492;2023-05-23T05:45:18;102227.06;;;21.17;53.01
79589;BME280;69067;51.930;4.492;2023-05-23T05:47:45;102225.50;;;21.14;52.49
79589;BME280;69067;51.930;4.492;2023-05-23T05:50:11;102227.50;;;21.12;52.83
79589;BME280;69067;51.930;4.492;2023-05-23T05:52:37;102230.91;;;21.14;53.15
79589;BME280;69067;51.930;4.492;2023-05-23T05:55:05;102227.19;;;21.15;52.88
79589;BME280;69067;51.930;4.492;2023-05-23T05:57:31;102242.44;;;21.16;52.56
79589;BME280;69067;51.930;4.492;2023-05-23T05:59:57;102237.19;;;21.15;53.02
79589;BME280;69067;51.930;4.492;2023-05-23T06:02:23;102229.91;;;21.15;52.31
79589;BME280;69067;51.930;4.492;2023-05-23T06:04:49;102237.50;;;21.12;52.98
79589;BME280;69067;51.930;4.492;2023-05-23T06:07:15;102240.75;;;21.15;52.38
79589;BME280;69067;51.930;4.492;2023-05-23T06:09:40;102236.47;;;21.13;52.65
79589;BME280;69067;51.930;4.492;2023-05-23T06:12:07;102242.91;;;21.12;51.62
79589;BME280;69067;51.930;4.492;2023-05-23T06:14:32;102247.31;;;21.13;52.63
79589;BME280;69067;51.930;4.492;2023-05-23T06:16:58;102244.75;;;21.11;52.22
79589;BME280;69067;51.930;4.492;2023-05-23T06:19:24;102258.44;;;21.10;53.26
79589;BME280;69067;51.930;4.492;2023-05-23T06:21:50;102251.50;;;21.07;52.28
79589;BME280;69067;51.930;4.492;2023-05-23T06:24:15;102248.81;;;21.07;52.48
79589;BME280;69067;51.930;4.492;2023-05-23T06:26:41;102251.66;;;21.06;52.27
79589;BME280;69067;51.930;4.492;2023-05-23T06:29:07;102268.44;;;21.09;52.59
79589;BME280;69067;51.930;4.492;2023-05-23T06:31:33;102267.63;;;21.09;52.70
79589;BME280;69067;51.930;4.492;2023-05-23T06:33:59;102259.50;;;21.09;52.61
79589;BME280;69067;51.930;4.492;2023-05-23T06:36:25;102264.34;;;21.05;52.81
79589;BME280;69067;51.930;4.492;2023-05-23T06:38:51;102269.63;;;21.07;52.27
79589;BME280;69067;51.930;4.492;2023-05-23T06:41:16;102263.34;;;21.06;53.33
79589;BME280;69067;51.930;4.492;2023-05-23T06:43:42;102268.75;;;21.06;53.09
79589;BME280;69067;51.930;4.492;2023-05-23T06:46:08;102271.47;;;21.06;53.02
79589;BME280;69067;51.930;4.492;2023-05-23T06:48:33;102269.91;;;21.04;53.77
79589;BME280;69067;51.930;4.492;2023-05-23T06:50:59;102270.63;;;21.06;53.24
79589;BME280;69067;51.930;4.492;2023-05-23T06:53:25;102280.75;;;21.04;53.86
79589;BME280;69067;51.930;4.492;2023-05-23T06:55:51;102279.59;;;21.06;53.41
79589;BME280;69067;51.930;4.492;2023-05-23T06:58:16;102281.59;;;21.04;53.73
79589;BME280;69067;51.930;4.492;2023-05-23T07:00:42;102281.75;;;21.03;53.63
79589;BME280;69067;51.930;4.492;2023-05-23T07:03:08;102275.81;;;20.99;54.10
79589;BME280;69067;51.930;4.492;2023-05-23T07:05:34;102276.50;;;21.01;52.86
79589;BME280;69067;51.930;4.492;2023-05-23T07:08:01;102274.47;;;21.03;53.60
79589;BME280;69067;51.930;4.492;2023-05-23T07:10:26;102272.09;;;21.00;53.40
79589;BME280;69067;51.930;4.492;2023-05-23T07:12:52;102282.78;;;21.02;53.31
79589;BME280;69067;51.930;4.492;2023-05-23T07:15:19;102282.22;;;20.98;53.50
79589;BME280;69067;51.930;4.492;2023-05-23T07:17:44;102278.38;;;21.01;53.77
79589;BME280;69067;51.930;4.492;2023-05-23T07:20:10;102290.22;;;21.00;53.38
79589;BME280;69067;51.930;4.492;2023-05-23T07:22:36;102300.34;;;20.98;53.66
79589;BME280;69067;51.930;4.492;2023-05-23T07:25:01;102287.66;;;20.98;53.33
79589;BME280;69067;51.930;4.492;2023-05-23T07:27:27;102301.03;;;21.00;53.00
79589;BME280;69067;51.930;4.492;2023-05-23T07:29:53;102291.50;;;20.96;53.29
79589;BME280;69067;51.930;4.492;2023-05-23T07:32:19;102301.34;;;20.97;53.16
79589;BME280;69067;51.930;4.492;2023-05-23T07:34:45;102292.53;;;20.95;53.59
79589;BME280;69067;51.930;4.492;2023-05-23T07:37:10;102309.31;;;20.98;52.24
79589;BME280;69067;51.930;4.492;2023-05-23T07:39:36;102302.34;;;20.96;53.17
79589;BME280;69067;51.930;4.492;2023-05-23T07:42:02;102316.72;;;20.96;53.30
79589;BME280;69067;51.930;4.492;2023-05-23T07:44:28;102311.31;;;20.96;52.89
79589;BME280;69067;51.930;4.492;2023-05-23T07:46:54;102305.03;;;20.96;53.70
79589;BME280;69067;51.930;4.492;2023-05-23T07:49:20;102295.91;;;20.97;52.60
79589;BME280;69067;51.930;4.492;2023-05-23T07:51:45;102295.06;;;20.96;52.68
79589;BME280;69067;51.930;4.492;2023-05-23T07:54:11;102299.97;;;20.93;52.63
79589;BME280;69067;51.930;4.492;2023-05-23T07:56:37;102315.19;;;20.94;52.52
79589;BME280;69067;51.930;4.492;2023-05-23T07:59:03;102306.22;;;20.93;52.64
79589;BME280;69067;51.930;4.492;2023-05-23T08:01:29;102303.66;;;20.92;51.86
79589;BME280;69067;51.930;4.492;2023-05-23T08:03:55;102314.66;;;20.90;52.88
79589;BME280;69067;51.930;4.492;2023-05-23T08:06:21;102320.75;;;20.92;52.33
79589;BME280;69067;51.930;4.492;2023-05-23T08:08:47;102311.66;;;20.93;51.92
79589;BME280;69067;51.930;4.492;2023-05-23T08:11:12;102323.47;;;20.92;52.24
79589;BME280;69067;51.930;4.492;2023-05-23T08:13:39;102319.06;;;20.91;52.33
79589;BME280;69067;51.930;4.492;2023-05-23T08:16:05;102326.47;;;20.89;52.02
79589;BME280;69067;51.930;4.492;2023-05-23T08:18:30;102330.03;;;20.90;52.14
79589;BME280;69067;51.930;4.492;2023-05-23T08:20:56;102324.94;;;20.87;52.08
79589;BME280;69067;51.930;4.492;2023-05-23T08:23:22;102324.81;;;20.88;51.47
79589;BME280;69067;51.930;4.492;2023-05-23T08:25:47;102334.78;;;20.88;52.31
79589;BME280;69067;51.930;4.492;2023-05-23T08:28:14;102338.50;;;20.87;51.82
79589;BME280;69067;51.930;4.492;2023-05-23T08:30:39;102340.19;;;20.88;51.36
79589;BME280;69067;51.930;4.492;2023-05-23T08:33:06;102329.38;;;20.88;51.96
79589;BME280;69067;51.930;4.492;2023-05-23T08:35:32;102339.34;;;20.87;51.96
79589;BME280;69067;51.930;4.492;2023-05-23T08:38:01;102334.06;;;20.86;52.00
79589;BME280;69067;51.930;4.492;2023-05-23T08:40:30;102334.22;;;20.84;51.81
79589;BME280;69067;51.930;4.492;2023-05-23T08:42:57;102334.22;;;20.84;51.54
79589;BME280;69067;51.930;4.492;2023-05-23T08:45:22;102340.19;;;20.88;51.54
79589;BME280;69067;51.930;4.492;2023-05-23T08:47:50;102339.34;;;20.87;51.66
79589;BME280;69067;51.930;4.492;2023-05-23T08:50:17;102336.22;;;20.82;51.57
79589;BME280;69067;51.930;4.492;2023-05-23T08:55:11;102337.06;;;20.82;51.65
79589;BME280;69067;51.930;4.492;2023-05-23T08:57:38;102347.06;;;20.82;51.79
79589;BME280;69067;51.930;4.492;2023-05-23T09:00:12;102348.75;;;20.83;50.80
79589;BME280;69067;51.930;4.492;2023-05-23T09:02:43;102341.63;;;20.82;51.43
79589;BME280;69067;51.930;4.492;2023-05-23T09:05:09;102347.91;;;20.82;51.48
79589;BME280;69067;51.930;4.492;2023-05-23T09:07:35;102352.66;;;20.80;50.89
79589;BME280;69067;51.930;4.492;2023-05-23T09:10:06;102360.75;;;20.80;51.23
79589;BME280;69067;51.930;4.492;2023-05-23T09:12:34;102352.94;;;20.77;51.56
79589;BME280;69067;51.930;4.492;2023-05-23T09:15:10;102361.38;;;20.74;50.65
79589;BME280;69067;51.930;4.492;2023-05-23T09:17:37;102359.06;;;20.79;51.21
79589;BME280;69067;51.930;4.492;2023-05-23T09:20:14;102354.50;;;20.80;50.97
79589;BME280;69067;51.930;4.492;2023-05-23T09:22:45;102365.16;;;20.81;51.34
79589;BME280;69067;51.930;4.492;2023-05-23T09:25:15;102374.31;;;20.80;50.96
79589;BME280;69067;51.930;4.492;2023-05-23T09:27:41;102371.59;;;20.80;51.36
79589;BME280;69067;51.930;4.492;2023-05-23T09:30:10;102384.09;;;20.81;51.79
79589;BME280;69067;51.930;4.492;2023-05-23T09:32:37;102374.44;;;20.79;51.45
79589;BME280;69067;51.930;4.492;2023-05-23T09:35:05;102384.28;;;20.80;51.12
79589;BME280;69067;51.930;4.492;2023-05-23T09:37:34;102374.91;;;20.74;51.60
79589;BME280;69067;51.930;4.492;2023-05-23T09:40:08;102381.00;;;20.76;51.32
79589;BME280;69067;51.930;4.492;2023-05-23T09:42:41;102378.31;;;20.76;50.96
79589;BME280;69067;51.930;4.492;2023-05-23T09:45:12;102376.75;;;20.74;51.32
79589;BME280;69067;51.930;4.492;2023-05-23T09:47:38;102379.00;;;20.78;50.72
79589;BME280;69067;51.930;4.492;2023-05-23T09:50:05;102373.75;;;20.77;50.74
79589;BME280;69067;51.930;4.492;2023-05-23T09:52:35;102380.31;;;20.74;50.80
79589;BME280;69067;51.930;4.492;2023-05-23T09:55:05;102371.03;;;20.77;51.03
79589;BME280;69067;51.930;4.492;2023-05-23T09:57:34;102388.97;;;20.78;50.75
79589;BME280;69067;51.930;4.492;2023-05-23T10:00:03;102388.13;;;20.77;50.74
79589;BME280;69067;51.930;4.492;2023-05-23T10:05:35;102392.84;;;20.75;51.00
79589;BME280;69067;51.930;4.492;2023-05-23T10:08:07;102389.28;;;20.75;50.67
79589;BME280;69067;51.930;4.492;2023-05-23T10:13:24;102394.69;;;20.75;50.70
79589;BME280;69067;51.930;4.492;2023-05-23T10:18:49;102387.59;;;20.74;50.88
79589;BME280;69067;51.930;4.492;2023-05-23T10:21:28;102394.88;;;20.73;50.32
79589;BME280;69067;51.930;4.492;2023-05-23T10:24:03;102395.72;;;20.74;50.23
79589;BME280;69067;51.930;4.492;2023-05-23T10:26:29;102396.72;;;20.73;50.18
79589;BME280;69067;51.930;4.492;2023-05-23T10:28:56;102410.78;;;20.76;50.43
79589;BME280;69067;51.930;4.492;2023-05-23T10:31:23;102398.09;;;20.77;50.45
79589;BME280;69067;51.930;4.492;2023-05-23T10:33:57;102404.22;;;20.79;50.70
79589;BME280;69067;51.930;4.492;2023-05-23T10:36:43;102401.38;;;20.80;50.95
79589;BME280;69067;51.930;4.492;2023-05-23T10:42:42;102403.03;;;20.81;51.00
79589;BME280;69067;51.930;4.492;2023-05-23T10:45:17;102407.78;;;20.79;50.82
79589;BME280;69067;51.930;4.492;2023-05-23T10:47:48;102405.22;;;20.78;51.04
79589;BME280;69067;51.930;4.492;2023-05-23T10:50:31;102399.97;;;20.76;51.14
79589;BME280;69067;51.930;4.492;2023-05-23T10:53:04;102407.78;;;20.79;50.68
79589;BME280;69067;51.930;4.492;2023-05-23T10:55:32;102410.50;;;20.79;50.82
79589;BME280;69067;51.930;4.492;2023-05-23T11:00:52;102402.50;;;20.78;51.04
79589;BME280;69067;51.930;4.492;2023-05-23T11:09:08;102415.06;;;20.79;51.38
79589;BME280;69067;51.930;4.492;2023-05-23T11:14:13;102404.09;;;20.80;51.81
79589;BME280;69067;51.930;4.492;2023-05-23T11:16:41;102407.78;;;20.79;50.94
79589;BME280;69067;51.930;4.492;2023-05-23T11:21:49;102411.16;;;20.81;51.10
79589;BME280;69067;51.930;4.492;2023-05-23T11:24:17;102406.94;;;20.79;51.79
79589;BME280;69067;51.930;4.492;2023-05-23T11:26:57;102400.53;;;20.80;50.75
79589;BME280;69067;51.930;4.492;2023-05-23T11:29:27;102406.06;;;20.78;51.55
79589;BME280;69067;51.930;4.492;2023-05-23T11:31:56;102414.06;;;20.80;51.27
79589;BME280;69067;51.930;4.492;2023-05-23T11:34:24;102424.19;;;20.78;51.33
79589;BME280;69067;51.930;4.492;2023-05-23T11:36:54;102422.31;;;20.78;50.97
79589;BME280;69067;51.930;4.492;2023-05-23T11:39:21;102418.63;;;20.79;50.79
79589;BME280;69067;51.930;4.492;2023-05-23T11:42:01;102422.19;;;20.80;51.25
79589;BME280;69067;51.930;4.492;2023-05-23T11:44:28;102420.63;;;20.77;51.27
79589;BME280;69067;51.930;4.492;2023-05-23T11:47:05;102422.31;;;20.78;51.05
79589;BME280;69067;51.930;4.492;2023-05-23T11:49:36;102423.19;;;20.79;50.91
79589;BME280;69067;51.930;4.492;2023-05-23T11:52:03;102425.03;;;20.78;50.89
79589;BME280;69067;51.930;4.492;2023-05-23T11:54:30;102429.44;;;20.79;50.57
79589;BME280;69067;51.930;4.492;2023-05-23T11:56:56;102425.03;;;20.78;50.83
79589;BME280;69067;51.930;4.492;2023-05-23T11:59:26;102423.31;;;20.77;51.42
79589;BME280;69067;51.930;4.492;2023-05-23T12:01:53;102425.75;;;20.80;50.45
79589;BME280;69067;51.930;4.492;2023-05-23T12:04:19;102422.31;;;20.78;50.87
79589;BME280;69067;51.930;4.492;2023-05-23T12:06:47;102427.75;;;20.78;50.60
79589;BME280;69067;51.930;4.492;2023-05-23T12:09:14;102426.03;;;20.77;50.29
79589;BME280;69067;51.930;4.492;2023-05-23T12:11:41;102426.88;;;20.78;50.00
79589;BME280;69067;51.930;4.492;2023-05-23T12:14:08;102426.88;;;20.78;50.21
79589;BME280;69067;51.930;4.492;2023-05-23T12:16:38;102429.44;;;20.79;50.36
79589;BME280;69067;51.930;4.492;2023-05-23T12:19:05;102426.88;;;20.78;50.55
79589;BME280;69067;51.930;4.492;2023-05-23T12:21:43;102431.44;;;20.77;50.21
79589;BME280;69067;51.930;4.492;2023-05-23T12:24:19;102434.16;;;20.77;49.98
79589;BME280;69067;51.930;4.492;2023-05-23T12:26:51;102439.56;;;20.77;50.01
79589;BME280;69067;51.930;4.492;2023-05-23T12:29:33;102439.56;;;20.77;49.88
79589;BME280;69067;51.930;4.492;2023-05-23T12:32:01;102427.03;;;20.76;49.87
79589;BME280;69067;51.930;4.492;2023-05-23T12:34:28;102428.03;;;20.75;49.85
79589;BME280;69067;51.930;4.492;2023-05-23T12:36:55;102430.72;;;20.75;50.19
79589;BME280;69067;51.930;4.492;2023-05-23T12:39:27;102438.56;;;20.78;49.64
79589;BME280;69067;51.930;4.492;2023-05-23T12:41:54;102429.72;;;20.76;49.71
79589;BME280;69067;51.930;4.492;2023-05-23T12:44:23;102433.28;;;20.77;49.43
79589;BME280;69067;51.930;4.492;2023-05-23T12:46:51;102426.34;;;20.74;49.36
79589;BME280;69067;51.930;4.492;2023-05-23T12:49:16;102428.72;;;20.77;49.32
79589;BME280;69067;51.930;4.492;2023-05-23T12:51:42;102426.75;;;20.79;49.40
79589;BME280;69067;51.930;4.492;2023-05-23T12:54:08;102426.88;;;20.78;49.49
79589;BME280;69067;51.930;4.492;2023-05-23T12:56:34;102428.59;;;20.79;49.16
79589;BME280;69067;51.930;4.492;2023-05-23T12:58:59;102433.16;;;20.78;49.16
79589;BME280;69067;51.930;4.492;2023-05-23T13:01:28;102427.75;;;20.78;48.58
79589;BME280;69067;51.930;4.492;2023-05-23T13:03:54;102433.16;;;20.78;48.82
79589;BME280;69067;51.930;4.492;2023-05-23T13:06:20;102417.19;;;20.75;48.78
79589;BME280;69067;51.930;4.492;2023-05-23T13:08:46;102429.59;;;20.78;48.50
79589;BME280;69067;51.930;4.492;2023-05-23T13:11:13;102427.75;;;20.78;48.75
79589;BME280;69067;51.930;4.492;2023-05-23T13:13:38;102427.75;;;20.78;48.23
79589;BME280;69067;51.930;4.492;2023-05-23T13:16:04;102438.56;;;20.78;48.64
79589;BME280;69067;51.930;4.492;2023-05-23T13:18:30;102444.84;;;20.79;48.82
79589;BME280;69067;51.930;4.492;2023-05-23T13:20:56;102431.28;;;20.79;48.00
79589;BME280;69067;51.930;4.492;2023-05-23T13:23:22;102431.44;;;20.77;48.51
79589;BME280;69067;51.930;4.492;2023-05-23T13:25:50;102427.75;;;20.78;48.62
79589;BME280;69067;51.930;4.492;2023-05-23T13:28:16;102429.72;;;20.76;48.05